sensor_id;sensor_type;location;lat;lon;timestamp;P1;durP1;ratioP1;P2;durP2;ratioP2
22007;SDS011;11168;56.976;24.168;2023-10-31T00:00:17;18.08;;;7.00;;
22007;SDS011;11168;56.976;24.168;2023-10-31T00:02:44;17.00;;;7.30;;
22007;SDS011;11168;56.976;24.168;2023-10-31T00:05:11;17.10;;;7.15;;
22007;SDS011;11168;56.976;24.168;2023-10-31T00:07:38;14.93;;;7.40;;
22007;SDS011;11168;56.976;24.168;2023-10-31T00:10:05;15.38;;;7.70;;
22007;SDS011;11168;56.976;24.168;2023-10-31T00:12:33;20.70;;;8.73;;
22007;SDS011;11168;56.976;24.168;2023-10-31T00:15:00;19.00;;;8.18;;
22007;SDS011;11168;56.976;24.168;2023-10-31T00:17:27;21.33;;;7.72;;
22007;SDS011;11168;56.976;24.168;2023-10-31T00:19:54;20.95;;;8.43;;
22007;SDS011;11168;56.976;24.168;2023-10-31T00:22:21;22.02;;;8.60;;
22007;SDS011;11168;56.976;24.168;2023-10-31T00:24:49;21.80;;;9.40;;
22007;SDS011;11168;56.976;24.168;2023-10-31T00:27:16;21.27;;;9.18;;
22007;SDS011;11168;56.976;24.168;2023-10-31T00:29:42;18.95;;;9.38;;
22007;SDS011;11168;56.976;24.168;2023-10-31T00:32:09;15.65;;;8.20;;
22007;SDS011;11168;56.976;24.168;2023-10-31T00:34:36;25.98;;;10.32;;
22007;SDS011;11168;56.976;24.168;2023-10-31T00:37:04;25.88;;;10.25;;
22007;SDS011;11168;56.976;24.168;2023-10-31T00:39:31;19.95;;;9.80;;
22007;SDS011;11168;56.976;24.168;2023-10-31T00:41:59;17.45;;;9.90;;
22007;SDS011;11168;56.976;24.168;2023-10-31T00:44:26;24.08;;;10.82;;
22007;SDS011;11168;56.976;24.168;2023-10-31T00:46:53;29.80;;;10.70;;
22007;SDS011;11168;56.976;24.168;2023-10-31T00:49:20;23.10;;;9.82;;
22007;SDS011;11168;56.976;24.168;2023-10-31T00:51:47;24.05;;;9.88;;
22007;SDS011;11168;56.976;24.168;2023-10-31T00:54:14;23.90;;;10.32;;
22007;SDS011;11168;56.976;24.168;2023-10-31T00:56:41;20.27;;;10.05;;
22007;SDS011;11168;56.976;24.168;2023-10-31T00:59:08;21.38;;;10.85;;
22007;SDS011;11168;56.976;24.168;2023-10-31T01:01:35;23.35;;;11.25;;
22007;SDS011;11168;56.976;24.168;2023-10-31T01:04:02;18.02;;;9.98;;
22007;SDS011;11168;56.976;24.168;2023-10-31T01:06:30;23.50;;;10.68;;
22007;SDS011;11168;56.976;24.168;2023-10-31T01:08:56;26.00;;;11.68;;
22007;SDS011;11168;56.976;24.168;2023-10-31T01:11:24;20.63;;;10.02;;
22007;SDS011;11168;56.976;24.168;2023-10-31T01:13:51;22.40;;;10.32;;
22007;SDS011;11168;56.976;24.168;2023-10-31T01:16:18;27.85;;;10.75;;
22007;SDS011;11168;56.976;24.168;2023-10-31T01:18:45;23.88;;;11.45;;
22007;SDS011;11168;56.976;24.168;2023-10-31T01:21:12;20.02;;;10.32;;
22007;SDS011;11168;56.976;24.168;2023-10-31T01:23:39;22.58;;;11.60;;
22007;SDS011;11168;56.976;24.168;2023-10-31T01:26:06;24.50;;;12.18;;
22007;SDS011;11168;56.976;24.168;2023-10-31T01:28:33;21.10;;;11.75;;
22007;SDS011;11168;56.976;24.168;2023-10-31T01:31:00;29.13;;;12.55;;
22007;SDS011;11168;56.976;24.168;2023-10-31T01:33:27;24.48;;;13.32;;
22007;SDS011;11168;56.976;24.168;2023-10-31T01:35:54;24.30;;;12.70;;
22007;SDS011;11168;56.976;24.168;2023-10-31T01:38:21;21.40;;;13.30;;
22007;SDS011;11168;56.976;24.168;2023-10-31T01:40:49;20.77;;;13.05;;
22007;SDS011;11168;56.976;24.168;2023-10-31T01:43:35;25.23;;;12.88;;
22007;SDS011;11168;56.976;24.168;2023-10-31T01:46:03;25.27;;;13.77;;
22007;SDS011;11168;56.976;24.168;2023-10-31T01:48:32;25.50;;;13.70;;
22007;SDS011;11168;56.976;24.168;2023-10-31T01:51:01;24.33;;;13.75;;
22007;SDS011;11168;56.976;24.168;2023-10-31T01:53:31;25.60;;;14.20;;
22007;SDS011;11168;56.976;24.168;2023-10-31T01:56:02;25.92;;;14.82;;
22007;SDS011;11168;56.976;24.168;2023-10-31T01:58:32;23.42;;;12.93;;
22007;SDS011;11168;56.976;24.168;2023-10-31T02:01:01;23.40;;;13.27;;
22007;SDS011;11168;56.976;24.168;2023-10-31T02:03:29;24.90;;;12.40;;
22007;SDS011;11168;56.976;24.168;2023-10-31T02:05:57;23.95;;;14.48;;
22007;SDS011;11168;56.976;24.168;2023-10-31T02:08:24;26.38;;;13.40;;
22007;SDS011;11168;56.976;24.168;2023-10-31T02:10:51;24.90;;;12.40;;
22007;SDS011;11168;56.976;24.168;2023-10-31T02:13:18;21.75;;;12.90;;
22007;SDS011;11168;56.976;24.168;2023-10-31T02:15:46;24.23;;;13.02;;
22007;SDS011;11168;56.976;24.168;2023-10-31T02:18:13;22.95;;;12.80;;
22007;SDS011;11168;56.976;24.168;2023-10-31T02:20:40;18.40;;;12.10;;
22007;SDS011;11168;56.976;24.168;2023-10-31T02:23:07;22.58;;;13.20;;
22007;SDS011;11168;56.976;24.168;2023-10-31T02:25:34;24.50;;;13.23;;
22007;SDS011;11168;56.976;24.168;2023-10-31T02:28:02;22.75;;;12.25;;
22007;SDS011;11168;56.976;24.168;2023-10-31T02:30:29;24.73;;;12.85;;
22007;SDS011;11168;56.976;24.168;2023-10-31T02:32:56;21.13;;;12.68;;
22007;SDS011;11168;56.976;24.168;2023-10-31T02:35:23;20.85;;;12.32;;
22007;SDS011;11168;56.976;24.168;2023-10-31T02:37:50;21.05;;;12.73;;
22007;SDS011;11168;56.976;24.168;2023-10-31T02:40:17;23.52;;;12.80;;
22007;SDS011;11168;56.976;24.168;2023-10-31T02:42:45;21.27;;;12.82;;
22007;SDS011;11168;56.976;24.168;2023-10-31T02:45:12;22.10;;;13.52;;
22007;SDS011;11168;56.976;24.168;2023-10-31T02:47:39;22.45;;;13.70;;
22007;SDS011;11168;56.976;24.168;2023-10-31T02:50:06;16.63;;;12.73;;
22007;SDS011;11168;56.976;24.168;2023-10-31T02:52:33;19.48;;;12.60;;
22007;SDS011;11168;56.976;24.168;2023-10-31T02:55:00;23.33;;;14.00;;
22007;SDS011;11168;56.976;24.168;2023-10-31T02:57:27;22.70;;;14.27;;
22007;SDS011;11168;56.976;24.168;2023-10-31T02:59:54;22.63;;;15.20;;
22007;SDS011;11168;56.976;24.168;2023-10-31T03:02:21;23.85;;;15.27;;
22007;SDS011;11168;56.976;24.168;2023-10-31T03:04:49;24.40;;;15.15;;
22007;SDS011;11168;56.976;24.168;2023-10-31T03:07:16;27.35;;;16.38;;
22007;SDS011;11168;56.976;24.168;2023-10-31T03:09:43;23.70;;;16.42;;
22007;SDS011;11168;56.976;24.168;2023-10-31T03:12:09;24.08;;;16.13;;
22007;SDS011;11168;56.976;24.168;2023-10-31T03:14:36;25.55;;;15.52;;
22007;SDS011;11168;56.976;24.168;2023-10-31T03:17:03;22.20;;;15.15;;
22007;SDS011;11168;56.976;24.168;2023-10-31T03:19:30;23.70;;;15.88;;
22007;SDS011;11168;56.976;24.168;2023-10-31T03:21:57;26.27;;;16.50;;
22007;SDS011;11168;56.976;24.168;2023-10-31T03:24:24;22.88;;;16.63;;
22007;SDS011;11168;56.976;24.168;2023-10-31T03:26:51;23.38;;;16.30;;
22007;SDS011;11168;56.976;24.168;2023-10-31T03:29:18;30.02;;;16.90;;
22007;SDS011;11168;56.976;24.168;2023-10-31T03:31:45;24.70;;;18.05;;
22007;SDS011;11168;56.976;24.168;2023-10-31T03:34:12;32.05;;;18.27;;
22007;SDS011;11168;56.976;24.168;2023-10-31T03:36:39;25.92;;;18.58;;
22007;SDS011;11168;56.976;24.168;2023-10-31T03:39:06;27.52;;;18.55;;
22007;SDS011;11168;56.976;24.168;2023-10-31T03:41:33;26.02;;;18.35;;
22007;SDS011;11168;56.976;24.168;2023-10-31T03:44:00;33.85;;;19.67;;
22007;SDS011;11168;56.976;24.168;2023-10-31T03:46:27;31.13;;;20.23;;
22007;SDS011;11168;56.976;24.168;2023-10-31T03:48:55;31.00;;;22.25;;
22007;SDS011;11168;56.976;24.168;2023-10-31T03:51:22;45.75;;;27.10;;
22007;SDS011;11168;56.976;24.168;2023-10-31T03:53:49;51.05;;;27.45;;
22007;SDS011;11168;56.976;24.168;2023-10-31T03:56:16;47.78;;;26.83;;
22007;SDS011;11168;56.976;24.168;2023-10-31T03:58:43;41.78;;;26.80;;
22007;SDS011;11168;56.976;24.168;2023-10-31T04:01:10;39.58;;;25.25;;
22007;SDS011;11168;56.976;24.168;2023-10-31T04:03:37;40.42;;;25.45;;
22007;SDS011;11168;56.976;24.168;2023-10-31T04:06:04;36.42;;;23.23;;
22007;SDS011;11168;56.976;24.168;2023-10-31T04:08:31;34.55;;;21.88;;
22007;SDS011;11168;56.976;24.168;2023-10-31T04:10:58;35.13;;;21.65;;
22007;SDS011;11168;56.976;24.168;2023-10-31T04:13:25;34.45;;;19.98;;
22007;SDS011;11168;56.976;24.168;2023-10-31T04:15:52;33.25;;;20.70;;
22007;SDS011;11168;56.976;24.168;2023-10-31T04:18:19;36.92;;;20.20;;
22007;SDS011;11168;56.976;24.168;2023-10-31T04:20:46;27.95;;;19.58;;
22007;SDS011;11168;56.976;24.168;2023-10-31T04:23:13;38.78;;;20.35;;
22007;SDS011;11168;56.976;24.168;2023-10-31T04:25:40;30.52;;;20.27;;
22007;SDS011;11168;56.976;24.168;2023-10-31T04:28:08;30.55;;;20.73;;
22007;SDS011;11168;56.976;24.168;2023-10-31T04:30:35;32.88;;;20.27;;
22007;SDS011;11168;56.976;24.168;2023-10-31T04:33:02;38.97;;;20.38;;
22007;SDS011;11168;56.976;24.168;2023-10-31T04:35:29;31.58;;;19.92;;
22007;SDS011;11168;56.976;24.168;2023-10-31T04:37:56;28.20;;;19.77;;
22007;SDS011;11168;56.976;24.168;2023-10-31T04:40:23;28.35;;;18.88;;
22007;SDS011;11168;56.976;24.168;2023-10-31T04:42:50;30.15;;;19.77;;
22007;SDS011;11168;56.976;24.168;2023-10-31T04:45:18;28.95;;;19.30;;
22007;SDS011;11168;56.976;24.168;2023-10-31T04:47:45;28.63;;;17.98;;
22007;SDS011;11168;56.976;24.168;2023-10-31T04:50:12;28.58;;;18.58;;
22007;SDS011;11168;56.976;24.168;2023-10-31T04:52:39;26.55;;;17.95;;
22007;SDS011;11168;56.976;24.168;2023-10-31T04:55:06;28.58;;;17.83;;
22007;SDS011;11168;56.976;24.168;2023-10-31T04:57:33;23.75;;;17.33;;
22007;SDS011;11168;56.976;24.168;2023-10-31T05:00:00;27.40;;;16.77;;
22007;SDS011;11168;56.976;24.168;2023-10-31T05:02:29;28.25;;;17.15;;
22007;SDS011;11168;56.976;24.168;2023-10-31T05:04:56;24.20;;;17.10;;
22007;SDS011;11168;56.976;24.168;2023-10-31T05:07:24;25.95;;;16.80;;
22007;SDS011;11168;56.976;24.168;2023-10-31T05:09:51;24.00;;;15.80;;
22007;SDS011;11168;56.976;24.168;2023-10-31T05:12:18;21.67;;;16.70;;
22007;SDS011;11168;56.976;24.168;2023-10-31T05:14:46;22.95;;;15.80;;
22007;SDS011;11168;56.976;24.168;2023-10-31T05:17:13;24.95;;;15.63;;
22007;SDS011;11168;56.976;24.168;2023-10-31T05:19:40;27.73;;;15.27;;
22007;SDS011;11168;56.976;24.168;2023-10-31T05:22:07;23.67;;;15.15;;
22007;SDS011;11168;56.976;24.168;2023-10-31T05:24:34;22.75;;;15.70;;
22007;SDS011;11168;56.976;24.168;2023-10-31T05:27:03;26.10;;;15.38;;
22007;SDS011;11168;56.976;24.168;2023-10-31T05:29:30;24.20;;;16.50;;
22007;SDS011;11168;56.976;24.168;2023-10-31T05:31:57;28.52;;;16.75;;
22007;SDS011;11168;56.976;24.168;2023-10-31T05:34:25;26.27;;;18.05;;
22007;SDS011;11168;56.976;24.168;2023-10-31T05:36:51;32.80;;;17.10;;
22007;SDS011;11168;56.976;24.168;2023-10-31T05:39:18;27.50;;;17.65;;
22007;SDS011;11168;56.976;24.168;2023-10-31T05:41:45;25.63;;;17.35;;
22007;SDS011;11168;56.976;24.168;2023-10-31T05:44:12;22.30;;;15.32;;
22007;SDS011;11168;56.976;24.168;2023-10-31T05:46:39;26.77;;;14.93;;
22007;SDS011;11168;56.976;24.168;2023-10-31T05:49:07;23.00;;;14.70;;
22007;SDS011;11168;56.976;24.168;2023-10-31T05:51:34;25.13;;;15.15;;
22007;SDS011;11168;56.976;24.168;2023-10-31T05:54:02;22.63;;;14.27;;
22007;SDS011;11168;56.976;24.168;2023-10-31T05:56:29;30.25;;;14.95;;
22007;SDS011;11168;56.976;24.168;2023-10-31T05:58:56;21.25;;;14.18;;
22007;SDS011;11168;56.976;24.168;2023-10-31T06:01:23;19.52;;;13.85;;
22007;SDS011;11168;56.976;24.168;2023-10-31T06:03:50;18.58;;;14.10;;
22007;SDS011;11168;56.976;24.168;2023-10-31T06:06:18;18.10;;;14.20;;
22007;SDS011;11168;56.976;24.168;2023-10-31T06:08:45;23.88;;;13.65;;
22007;SDS011;11168;56.976;24.168;2023-10-31T06:11:12;23.52;;;13.90;;
22007;SDS011;11168;56.976;24.168;2023-10-31T06:13:39;23.33;;;14.18;;
22007;SDS011;11168;56.976;24.168;2023-10-31T06:16:07;18.45;;;14.60;;
22007;SDS011;11168;56.976;24.168;2023-10-31T06:18:34;20.70;;;13.48;;
22007;SDS011;11168;56.976;24.168;2023-10-31T06:21:02;20.40;;;12.48;;
22007;SDS011;11168;56.976;24.168;2023-10-31T06:23:29;20.10;;;13.60;;
22007;SDS011;11168;56.976;24.168;2023-10-31T06:25:58;21.92;;;14.10;;
22007;SDS011;11168;56.976;24.168;2023-10-31T06:28:25;18.67;;;13.35;;
22007;SDS011;11168;56.976;24.168;2023-10-31T06:30:52;20.30;;;13.57;;
22007;SDS011;11168;56.976;24.168;2023-10-31T06:33:19;21.17;;;13.88;;
22007;SDS011;11168;56.976;24.168;2023-10-31T06:35:46;19.50;;;13.18;;
22007;SDS011;11168;56.976;24.168;2023-10-31T06:38:13;21.40;;;13.00;;
22007;SDS011;11168;56.976;24.168;2023-10-31T06:40:40;17.63;;;12.18;;
22007;SDS011;11168;56.976;24.168;2023-10-31T06:43:07;18.95;;;12.13;;
22007;SDS011;11168;56.976;24.168;2023-10-31T06:45:34;15.40;;;10.43;;
22007;SDS011;11168;56.976;24.168;2023-10-31T06:48:01;20.40;;;11.05;;
22007;SDS011;11168;56.976;24.168;2023-10-31T06:50:29;19.05;;;10.27;;
22007;SDS011;11168;56.976;24.168;2023-10-31T06:52:56;14.00;;;8.90;;
22007;SDS011;11168;56.976;24.168;2023-10-31T06:55:23;15.10;;;9.23;;
22007;SDS011;11168;56.976;24.168;2023-10-31T06:57:50;13.27;;;8.43;;
22007;SDS011;11168;56.976;24.168;2023-10-31T07:00:19;10.95;;;8.32;;
22007;SDS011;11168;56.976;24.168;2023-10-31T07:02:47;15.15;;;7.50;;
22007;SDS011;11168;56.976;24.168;2023-10-31T07:05:14;11.32;;;7.32;;
22007;SDS011;11168;56.976;24.168;2023-10-31T07:07:43;12.88;;;8.35;;
22007;SDS011;11168;56.976;24.168;2023-10-31T07:10:10;10.77;;;7.63;;
22007;SDS011;11168;56.976;24.168;2023-10-31T07:12:37;14.60;;;8.13;;
22007;SDS011;11168;56.976;24.168;2023-10-31T07:15:04;10.75;;;7.32;;
22007;SDS011;11168;56.976;24.168;2023-10-31T07:17:31;9.30;;;7.10;;
22007;SDS011;11168;56.976;24.168;2023-10-31T07:19:59;12.50;;;6.90;;
22007;SDS011;11168;56.976;24.168;2023-10-31T07:22:26;12.93;;;7.28;;
22007;SDS011;11168;56.976;24.168;2023-10-31T07:24:53;10.77;;;7.38;;
22007;SDS011;11168;56.976;24.168;2023-10-31T07:27:20;13.43;;;7.13;;
22007;SDS011;11168;56.976;24.168;2023-10-31T07:29:47;12.23;;;6.90;;
22007;SDS011;11168;56.976;24.168;2023-10-31T07:32:15;10.65;;;7.05;;
22007;SDS011;11168;56.976;24.168;2023-10-31T07:34:42;9.48;;;7.00;;
22007;SDS011;11168;56.976;24.168;2023-10-31T07:37:10;9.82;;;7.07;;
22007;SDS011;11168;56.976;24.168;2023-10-31T07:39:37;10.52;;;7.05;;
22007;SDS011;11168;56.976;24.168;2023-10-31T07:42:05;12.13;;;7.28;;
22007;SDS011;11168;56.976;24.168;2023-10-31T07:44:32;13.38;;;6.68;;
22007;SDS011;11168;56.976;24.168;2023-10-31T07:47:00;10.77;;;6.97;;
22007;SDS011;11168;56.976;24.168;2023-10-31T07:49:27;14.88;;;7.53;;
22007;SDS011;11168;56.976;24.168;2023-10-31T07:51:54;11.40;;;6.78;;
22007;SDS011;11168;56.976;24.168;2023-10-31T07:54:21;15.75;;;7.10;;
22007;SDS011;11168;56.976;24.168;2023-10-31T07:56:48;9.02;;;7.10;;
22007;SDS011;11168;56.976;24.168;2023-10-31T07:59:15;10.85;;;7.05;;
22007;SDS011;11168;56.976;24.168;2023-10-31T08:01:42;9.38;;;7.10;;
22007;SDS011;11168;56.976;24.168;2023-10-31T08:04:09;11.05;;;6.60;;
22007;SDS011;11168;56.976;24.168;2023-10-31T08:06:36;12.00;;;6.88;;
22007;SDS011;11168;56.976;24.168;2023-10-31T08:09:03;13.10;;;7.22;;
22007;SDS011;11168;56.976;24.168;2023-10-31T08:14:01;10.75;;;6.40;;
22007;SDS011;11168;56.976;24.168;2023-10-31T08:16:28;11.65;;;6.68;;
22007;SDS011;11168;56.976;24.168;2023-10-31T08:18:55;9.98;;;6.30;;
22007;SDS011;11168;56.976;24.168;2023-10-31T08:21:22;9.32;;;6.07;;
22007;SDS011;11168;56.976;24.168;2023-10-31T08:23:49;10.07;;;5.90;;
22007;SDS011;11168;56.976;24.168;2023-10-31T08:26:17;11.38;;;5.85;;
22007;SDS011;11168;56.976;24.168;2023-10-31T08:28:44;9.23;;;5.57;;
22007;SDS011;11168;56.976;24.168;2023-10-31T08:31:11;10.70;;;5.78;;
22007;SDS011;11168;56.976;24.168;2023-10-31T08:33:38;8.82;;;5.90;;
22007;SDS011;11168;56.976;24.168;2023-10-31T08:36:05;9.70;;;5.50;;
22007;SDS011;11168;56.976;24.168;2023-10-31T08:38:33;8.93;;;6.28;;
22007;SDS011;11168;56.976;24.168;2023-10-31T08:41:00;9.65;;;5.97;;
22007;SDS011;11168;56.976;24.168;2023-10-31T08:43:27;12.10;;;5.60;;
22007;SDS011;11168;56.976;24.168;2023-10-31T08:45:54;10.65;;;5.55;;
22007;SDS011;11168;56.976;24.168;2023-10-31T08:48:22;10.65;;;5.80;;
22007;SDS011;11168;56.976;24.168;2023-10-31T08:50:49;9.55;;;5.85;;
22007;SDS011;11168;56.976;24.168;2023-10-31T08:53:16;8.82;;;5.45;;
22007;SDS011;11168;56.976;24.168;2023-10-31T08:55:45;9.55;;;5.63;;
22007;SDS011;11168;56.976;24.168;2023-10-31T08:58:12;9.32;;;6.45;;
22007;SDS011;11168;56.976;24.168;2023-10-31T09:00:40;10.68;;;6.35;;
22007;SDS011;11168;56.976;24.168;2023-10-31T09:03:08;11.50;;;6.32;;
22007;SDS011;11168;56.976;24.168;2023-10-31T09:05:35;10.98;;;6.47;;
22007;SDS011;11168;56.976;24.168;2023-10-31T09:08:02;10.07;;;6.13;;
22007;SDS011;11168;56.976;24.168;2023-10-31T09:10:30;12.15;;;6.00;;
22007;SDS011;11168;56.976;24.168;2023-10-31T09:12:57;9.98;;;5.43;;
22007;SDS011;11168;56.976;24.168;2023-10-31T09:15:23;9.40;;;5.80;;
22007;SDS011;11168;56.976;24.168;2023-10-31T09:17:50;14.32;;;6.30;;
22007;SDS011;11168;56.976;24.168;2023-10-31T09:20:18;10.45;;;5.30;;
22007;SDS011;11168;56.976;24.168;2023-10-31T09:22:45;9.13;;;5.85;;
22007;SDS011;11168;56.976;24.168;2023-10-31T09:25:13;10.48;;;5.25;;
22007;SDS011;11168;56.976;24.168;2023-10-31T09:27:40;11.10;;;6.03;;
22007;SDS011;11168;56.976;24.168;2023-10-31T09:30:08;9.45;;;5.80;;
22007;SDS011;11168;56.976;24.168;2023-10-31T09:32:35;9.93;;;5.55;;
22007;SDS011;11168;56.976;24.168;2023-10-31T09:35:03;8.23;;;5.53;;
22007;SDS011;11168;56.976;24.168;2023-10-31T09:37:31;10.45;;;5.20;;
22007;SDS011;11168;56.976;24.168;2023-10-31T09:39:58;11.65;;;5.60;;
22007;SDS011;11168;56.976;24.168;2023-10-31T09:42:25;12.32;;;5.47;;
22007;SDS011;11168;56.976;24.168;2023-10-31T09:44:52;9.05;;;5.53;;
22007;SDS011;11168;56.976;24.168;2023-10-31T09:47:20;9.48;;;5.35;;
22007;SDS011;11168;56.976;24.168;2023-10-31T09:49:47;8.70;;;5.22;;
22007;SDS011;11168;56.976;24.168;2023-10-31T09:52:14;7.90;;;5.47;;
22007;SDS011;11168;56.976;24.168;2023-10-31T09:54:43;11.63;;;6.15;;
22007;SDS011;11168;56.976;24.168;2023-10-31T09:57:12;11.15;;;5.95;;
22007;SDS011;11168;56.976;24.168;2023-10-31T09:59:44;10.25;;;5.70;;
22007;SDS011;11168;56.976;24.168;2023-10-31T10:02:11;8.05;;;5.32;;
22007;SDS011;11168;56.976;24.168;2023-10-31T10:04:39;10.27;;;5.30;;
22007;SDS011;11168;56.976;24.168;2023-10-31T10:07:06;11.40;;;6.22;;
22007;SDS011;11168;56.976;24.168;2023-10-31T10:09:33;11.95;;;5.07;;
22007;SDS011;11168;56.976;24.168;2023-10-31T10:12:01;10.90;;;5.32;;
22007;SDS011;11168;56.976;24.168;2023-10-31T10:14:28;7.10;;;5.60;;
22007;SDS011;11168;56.976;24.168;2023-10-31T10:16:58;11.13;;;5.47;;
22007;SDS011;11168;56.976;24.168;2023-10-31T10:19:26;8.63;;;5.57;;
22007;SDS011;11168;56.976;24.168;2023-10-31T10:21:56;8.55;;;5.20;;
22007;SDS011;11168;56.976;24.168;2023-10-31T10:24:24;6.97;;;5.05;;
22007;SDS011;11168;56.976;24.168;2023-10-31T10:26:51;8.95;;;4.68;;
22007;SDS011;11168;56.976;24.168;2023-10-31T10:29:19;8.60;;;4.75;;
22007;SDS011;11168;56.976;24.168;2023-10-31T10:31:46;9.35;;;4.18;;
22007;SDS011;11168;56.976;24.168;2023-10-31T10:34:14;6.47;;;4.30;;
22007;SDS011;11168;56.976;24.168;2023-10-31T10:36:46;7.43;;;4.32;;
22007;SDS011;11168;56.976;24.168;2023-10-31T10:39:21;5.75;;;3.97;;
22007;SDS011;11168;56.976;24.168;2023-10-31T10:41:53;6.20;;;4.20;;
22007;SDS011;11168;56.976;24.168;2023-10-31T10:44:32;9.20;;;4.65;;
22007;SDS011;11168;56.976;24.168;2023-10-31T10:47:05;6.45;;;4.65;;
22007;SDS011;11168;56.976;24.168;2023-10-31T10:49:40;11.88;;;3.92;;
22007;SDS011;11168;56.976;24.168;2023-10-31T10:52:28;6.75;;;4.50;;
22007;SDS011;11168;56.976;24.168;2023-10-31T11:00:54;12.53;;;4.27;;
22007;SDS011;11168;56.976;24.168;2023-10-31T11:03:23;7.90;;;3.88;;
22007;SDS011;11168;56.976;24.168;2023-10-31T11:05:52;6.65;;;4.43;;
22007;SDS011;11168;56.976;24.168;2023-10-31T11:08:20;5.90;;;4.00;;
22007;SDS011;11168;56.976;24.168;2023-10-31T11:10:50;6.50;;;3.90;;
22007;SDS011;11168;56.976;24.168;2023-10-31T11:13:19;9.23;;;4.32;;
22007;SDS011;11168;56.976;24.168;2023-10-31T11:15:47;6.78;;;4.00;;
22007;SDS011;11168;56.976;24.168;2023-10-31T11:18:20;7.07;;;4.20;;
22007;SDS011;11168;56.976;24.168;2023-10-31T11:20:48;6.68;;;4.43;;
22007;SDS011;11168;56.976;24.168;2023-10-31T11:23:15;6.85;;;4.15;;
22007;SDS011;11168;56.976;24.168;2023-10-31T11:25:43;8.40;;;4.40;;
22007;SDS011;11168;56.976;24.168;2023-10-31T11:28:14;8.60;;;4.35;;
22007;SDS011;11168;56.976;24.168;2023-10-31T11:30:43;6.55;;;4.35;;
22007;SDS011;11168;56.976;24.168;2023-10-31T11:33:14;6.85;;;4.28;;
22007;SDS011;11168;56.976;24.168;2023-10-31T11:35:49;6.88;;;4.70;;
22007;SDS011;11168;56.976;24.168;2023-10-31T11:38:36;6.97;;;4.30;;
22007;SDS011;11168;56.976;24.168;2023-10-31T11:41:04;6.80;;;4.32;;
22007;SDS011;11168;56.976;24.168;2023-10-31T11:46:06;7.13;;;4.70;;
22007;SDS011;11168;56.976;24.168;2023-10-31T11:48:54;8.65;;;5.10;;
22007;SDS011;11168;56.976;24.168;2023-10-31T11:51:23;6.78;;;4.45;;
22007;SDS011;11168;56.976;24.168;2023-10-31T11:53:51;9.75;;;4.75;;
22007;SDS011;11168;56.976;24.168;2023-10-31T11:56:19;9.70;;;4.95;;
22007;SDS011;11168;56.976;24.168;2023-10-31T11:59:03;9.88;;;5.18;;
22007;SDS011;11168;56.976;24.168;2023-10-31T12:01:33;8.93;;;4.78;;
22007;SDS011;11168;56.976;24.168;2023-10-31T12:04:20;11.68;;;5.47;;
22007;SDS011;11168;56.976;24.168;2023-10-31T12:06:58;14.02;;;6.25;;
22007;SDS011;11168;56.976;24.168;2023-10-31T12:09:26;9.15;;;4.90;;
22007;SDS011;11168;56.976;24.168;2023-10-31T12:12:05;8.68;;;5.25;;
22007;SDS011;11168;56.976;24.168;2023-10-31T12:14:33;7.13;;;5.45;;
22007;SDS011;11168;56.976;24.168;2023-10-31T12:17:03;8.70;;;6.05;;
22007;SDS011;11168;56.976;24.168;2023-10-31T12:19:31;7.80;;;6.00;;
22007;SDS011;11168;56.976;24.168;2023-10-31T12:21:59;12.55;;;6.60;;
22007;SDS011;11168;56.976;24.168;2023-10-31T12:24:26;11.57;;;7.20;;
22007;SDS011;11168;56.976;24.168;2023-10-31T12:26:53;10.77;;;7.07;;
22007;SDS011;11168;56.976;24.168;2023-10-31T12:29:20;11.75;;;6.93;;
22007;SDS011;11168;56.976;24.168;2023-10-31T12:31:52;13.52;;;7.85;;
22007;SDS011;11168;56.976;24.168;2023-10-31T12:37:28;11.68;;;7.40;;
22007;SDS011;11168;56.976;24.168;2023-10-31T12:39:56;14.52;;;7.75;;
22007;SDS011;11168;56.976;24.168;2023-10-31T12:42:24;15.63;;;7.85;;
22007;SDS011;11168;56.976;24.168;2023-10-31T12:44:55;9.23;;;7.20;;
22007;SDS011;11168;56.976;24.168;2023-10-31T12:47:23;13.23;;;7.90;;
22007;SDS011;11168;56.976;24.168;2023-10-31T12:52:51;13.82;;;8.05;;
22007;SDS011;11168;56.976;24.168;2023-10-31T12:55:21;12.73;;;8.27;;
22007;SDS011;11168;56.976;24.168;2023-10-31T12:57:51;14.18;;;8.82;;
22007;SDS011;11168;56.976;24.168;2023-10-31T13:00:19;13.30;;;8.93;;
22007;SDS011;11168;56.976;24.168;2023-10-31T13:02:51;12.02;;;9.10;;
22007;SDS011;11168;56.976;24.168;2023-10-31T13:05:35;13.32;;;9.77;;
22007;SDS011;11168;56.976;24.168;2023-10-31T13:08:03;14.48;;;9.80;;
22007;SDS011;11168;56.976;24.168;2023-10-31T13:10:36;14.93;;;9.68;;
22007;SDS011;11168;56.976;24.168;2023-10-31T13:13:03;13.73;;;10.05;;
22007;SDS011;11168;56.976;24.168;2023-10-31T13:15:30;13.63;;;10.15;;
22007;SDS011;11168;56.976;24.168;2023-10-31T13:17:57;16.73;;;10.18;;
22007;SDS011;11168;56.976;24.168;2023-10-31T13:20:24;19.75;;;11.52;;
22007;SDS011;11168;56.976;24.168;2023-10-31T13:22:51;14.50;;;11.88;;
22007;SDS011;11168;56.976;24.168;2023-10-31T13:25:18;14.82;;;10.80;;
22007;SDS011;11168;56.976;24.168;2023-10-31T13:27:46;15.98;;;12.18;;
22007;SDS011;11168;56.976;24.168;2023-10-31T13:30:31;20.85;;;12.40;;
22007;SDS011;11168;56.976;24.168;2023-10-31T13:32:58;17.15;;;11.80;;
22007;SDS011;11168;56.976;24.168;2023-10-31T13:35:25;14.18;;;11.52;;
22007;SDS011;11168;56.976;24.168;2023-10-31T13:37:54;18.13;;;12.32;;
22007;SDS011;11168;56.976;24.168;2023-10-31T13:40:21;16.17;;;11.48;;
22007;SDS011;11168;56.976;24.168;2023-10-31T13:42:48;17.23;;;10.55;;
22007;SDS011;11168;56.976;24.168;2023-10-31T13:45:23;18.05;;;11.32;;
22007;SDS011;11168;56.976;24.168;2023-10-31T13:47:50;16.27;;;10.48;;
22007;SDS011;11168;56.976;24.168;2023-10-31T13:50:17;15.82;;;10.35;;
22007;SDS011;11168;56.976;24.168;2023-10-31T13:52:44;15.68;;;10.82;;
22007;SDS011;11168;56.976;24.168;2023-10-31T13:55:11;14.45;;;10.43;;
22007;SDS011;11168;56.976;24.168;2023-10-31T13:57:38;17.23;;;10.48;;
22007;SDS011;11168;56.976;24.168;2023-10-31T14:00:06;16.90;;;11.20;;
22007;SDS011;11168;56.976;24.168;2023-10-31T14:02:35;14.68;;;10.60;;
22007;SDS011;11168;56.976;24.168;2023-10-31T14:05:04;17.05;;;10.60;;
22007;SDS011;11168;56.976;24.168;2023-10-31T14:07:32;13.23;;;10.07;;
22007;SDS011;11168;56.976;24.168;2023-10-31T14:10:01;13.90;;;10.30;;
22007;SDS011;11168;56.976;24.168;2023-10-31T14:12:28;16.30;;;9.93;;
22007;SDS011;11168;56.976;24.168;2023-10-31T14:14:57;16.80;;;9.75;;
22007;SDS011;11168;56.976;24.168;2023-10-31T14:17:27;14.05;;;10.00;;
22007;SDS011;11168;56.976;24.168;2023-10-31T14:19:58;14.93;;;10.55;;
22007;SDS011;11168;56.976;24.168;2023-10-31T14:25:18;14.55;;;10.10;;
22007;SDS011;11168;56.976;24.168;2023-10-31T14:27:48;17.83;;;10.50;;
22007;SDS011;11168;56.976;24.168;2023-10-31T14:30:16;15.30;;;10.23;;
22007;SDS011;11168;56.976;24.168;2023-10-31T14:33:16;12.32;;;10.77;;
22007;SDS011;11168;56.976;24.168;2023-10-31T14:35:43;12.90;;;10.05;;
22007;SDS011;11168;56.976;24.168;2023-10-31T14:38:10;19.40;;;11.02;;
22007;SDS011;11168;56.976;24.168;2023-10-31T14:40:51;14.43;;;10.88;;
22007;SDS011;11168;56.976;24.168;2023-10-31T14:43:19;16.85;;;10.68;;